Time;durP1;ratioP1;P1;durP2;ratioP2;P2;SDS_P1;SDS_P2;PMS_P1;PMS_P2;Temp;Humidity;BMP_temperature;BMP_pressure;BME280_temperature;BME280_humidity;BME280_pressure;Samples;Min_cycle;Max_cycle;Signal;HPM_P1;HPM_P2
2020/12/03 00:00:46;;;;;;;14.57;6.40;;;2.60;99.90;;;;;;5083498;28;20677;-73
2020/12/03 00:03:18;;;;;;;17.13;8.52;;;2.60;99.90;;;;;;5084382;28;20199;-73
2020/12/03 00:05:48;;;;;;;19.27;8.02;;;2.70;99.90;;;;;;5086672;28;20277;-74
2020/12/03 00:08:15;;;;;;;15.27;7.20;;;2.90;99.90;;;;;;5084349;28;20205;-73
2020/12/03 00:10:41;;;;;;;25.52;7.95;;;3.00;99.90;;;;;;5086210;28;20218;-72
2020/12/03 00:13:19;;;;;;;13.77;7.60;;;3.10;99.90;;;;;;5083226;28;20238;-73
2020/12/03 00:15:51;;;;;;;22.55;8.88;;;3.20;99.90;;;;;;5084570;28;20218;-72
2020/12/03 00:18:18;;;;;;;16.58;8.30;;;3.20;99.90;;;;;;5091577;28;20286;-72
2020/12/03 00:20:44;;;;;;;16.58;8.15;;;3.10;99.90;;;;;;5094011;28;20218;-72
2020/12/03 00:23:11;;;;;;;19.27;7.57;;;3.00;99.90;;;;;;5095340;28;20564;-72
2020/12/03 00:25:37;;;;;;;20.33;7.40;;;2.80;99.90;;;;;;5094731;28;20198;-72
2020/12/03 00:28:03;;;;;;;12.57;7.90;;;2.90;99.90;;;;;;5095196;28;20308;-73
2020/12/03 00:30:30;;;;;;;23.45;9.60;;;2.80;99.90;;;;;;5094956;28;20196;-72
2020/12/03 00:32:57;;;;;;;18.45;8.25;;;2.70;99.90;;;;;;5095441;28;20212;-72
2020/12/03 00:35:24;;;;;;;16.33;7.93;;;2.70;99.90;;;;;;5094907;28;20228;-71
2020/12/03 00:37:52;;;;;;;23.23;8.63;;;2.60;99.90;;;;;;5095301;28;20283;-72
2020/12/03 00:40:19;;;;;;;16.83;7.82;;;2.70;99.90;;;;;;5095183;28;20198;-72
2020/12/03 00:42:45;;;;;;;21.60;7.72;;;2.80;99.90;;;;;;5095046;28;20555;-72
2020/12/03 00:45:15;;;;;;;16.05;7.15;;;2.80;99.90;;;;;;5094428;28;20198;-72
2020/12/03 00:47:42;;;;;;;22.33;8.05;;;2.70;99.90;;;;;;5095072;28;20626;-72
2020/12/03 00:50:13;;;;;;;16.13;8.00;;;2.50;99.90;;;;;;5095029;28;20198;-72
2020/12/03 00:52:40;;;;;;;20.63;8.38;;;2.40;99.90;;;;;;5093015;28;20193;-72
2020/12/03 00:55:15;;;;;;;19.30;7.63;;;2.40;99.90;;;;;;5093280;28;20350;-72
2020/12/03 00:57:41;;;;;;;17.48;8.00;;;2.40;99.90;;;;;;5092121;28;20224;-72
2020/12/03 01:00:09;;;;;;;14.68;8.63;;;2.60;99.90;;;;;;5094707;28;20296;-72
2020/12/03 01:02:36;;;;;;;18.20;8.48;;;2.70;99.90;;;;;;5094802;28;20359;-72
2020/12/03 01:05:02;;;;;;;22.55;8.27;;;2.90;99.90;;;;;;5093939;28;20212;-72
2020/12/03 01:07:30;;;;;;;16.98;8.50;;;3.10;99.90;;;;;;5094107;28;20198;-72
2020/12/03 01:09:56;;;;;;;17.73;8.57;;;3.20;99.90;;;;;;5094227;28;20247;-72
2020/12/03 01:12:22;;;;;;;21.05;8.93;;;3.30;99.90;;;;;;5094155;28;20218;-72
2020/12/03 01:14:49;;;;;;;21.65;8.85;;;3.10;99.90;;;;;;5093897;28;20225;-72
2020/12/03 01:17:16;;;;;;;26.48;8.80;;;3.20;99.90;;;;;;5094023;28;20212;-72
2020/12/03 01:19:42;;;;;;;19.17;8.75;;;3.10;99.90;;;;;;5092437;28;20196;-72
2020/12/03 01:22:09;;;;;;;21.02;8.00;;;2.90;99.90;;;;;;5092808;28;20213;-72
2020/12/03 01:24:37;;;;;;;21.70;7.45;;;2.90;99.90;;;;;;5093508;28;20194;-72
2020/12/03 01:27:03;;;;;;;15.27;7.60;;;2.90;99.90;;;;;;5093071;28;20206;-72
2020/12/03 01:29:30;;;;;;;20.38;8.95;;;2.90;99.90;;;;;;5094243;28;20201;-72
2020/12/03 01:31:56;;;;;;;22.05;8.73;;;2.80;99.90;;;;;;5093629;28;20222;-71
2020/12/03 01:34:22;;;;;;;18.48;9.35;;;2.80;99.90;;;;;;5094417;28;20201;-72
2020/12/03 01:36:50;;;;;;;17.17;6.82;;;2.60;99.90;;;;;;5093787;28;20636;-74
2020/12/03 01:39:16;;;;;;;18.80;7.53;;;2.70;99.90;;;;;;5093828;28;20201;-74
2020/12/03 01:41:44;;;;;;;21.90;8.23;;;2.80;99.90;;;;;;5092600;28;20563;-75
2020/12/03 01:44:10;;;;;;;15.80;7.85;;;2.90;99.90;;;;;;5092552;28;20209;-75
2020/12/03 01:46:37;;;;;;;20.98;8.60;;;2.90;99.90;;;;;;5092498;28;20202;-74
2020/12/03 01:49:12;;;;;;;19.67;8.38;;;3.00;99.90;;;;;;5092647;28;20204;-74
2020/12/03 01:51:41;;;;;;;22.27;8.20;;;3.10;99.90;;;;;;5093450;28;20268;-75
2020/12/03 01:54:10;;;;;;;14.80;6.32;;;2.90;99.90;;;;;;5094108;28;20209;-74
2020/12/03 01:56:57;;;;;;;15.85;7.93;;;2.90;99.90;;;;;;5093854;28;20296;-75
2020/12/03 01:59:25;;;;;;;17.20;7.80;;;2.90;99.90;;;;;;5093132;28;20563;-75
2020/12/03 02:01:52;;;;;;;20.23;6.78;;;2.80;99.90;;;;;;5083669;28;20210;-74
2020/12/03 02:04:19;;;;;;;15.63;6.85;;;2.80;99.90;;;;;;5081363;28;20201;-75
2020/12/03 02:06:48;;;;;;;22.25;7.57;;;2.90;99.90;;;;;;5081154;28;20194;-76
2020/12/03 02:09:14;;;;;;;13.35;8.43;;;2.90;99.90;;;;;;5081926;28;20668;-75
2020/12/03 02:11:41;;;;;;;15.38;6.70;;;3.00;99.90;;;;;;5083232;28;20560;-74
2020/12/03 02:14:11;;;;;;;18.08;6.93;;;3.10;99.90;;;;;;5082792;28;20544;-76
2020/12/03 02:16:41;;;;;;;17.27;8.70;;;3.10;99.90;;;;;;5083021;28;20191;-77
2020/12/03 02:19:17;;;;;;;20.63;7.25;;;3.10;99.90;;;;;;5081609;28;20213;-77
2020/12/03 02:21:45;;;;;;;26.60;8.90;;;3.10;99.90;;;;;;5080572;28;20218;-77
2020/12/03 02:24:11;;;;;;;16.02;6.72;;;3.00;99.90;;;;;;5081923;28;20205;-76
2020/12/03 02:26:37;;;;;;;19.15;7.95;;;3.10;99.90;;;;;;5081209;28;20578;-75
2020/12/03 02:29:04;;;;;;;20.27;8.15;;;3.10;99.90;;;;;;5083232;28;20204;-77
2020/12/03 02:31:31;;;;;;;20.90;7.70;;;3.20;99.90;;;;;;5083326;28;20248;-77
2020/12/03 02:33:57;;;;;;;22.95;8.73;;;3.20;99.90;;;;;;5080293;28;20195;-76
2020/12/03 02:36:23;;;;;;;18.45;7.97;;;3.30;99.90;;;;;;5080863;28;20725;-75
2020/12/03 02:38:50;;;;;;;20.02;7.90;;;3.30;99.90;;;;;;5085814;28;20195;-76
2020/12/03 02:41:17;;;;;;;19.42;8.15;;;3.20;99.90;;;;;;5084858;28;20217;-74
2020/12/03 02:43:43;;;;;;;24.98;8.95;;;3.30;99.90;;;;;;5086635;28;20203;-75
2020/12/03 02:46:09;;;;;;;17.70;7.03;;;3.30;99.90;;;;;;5085326;28;20274;-77
2020/12/03 02:48:35;;;;;;;17.25;7.75;;;3.20;99.90;;;;;;5084952;28;20677;-76
2020/12/03 02:51:02;;;;;;;23.38;8.35;;;3.10;99.90;;;;;;5084769;28;20215;-76
2020/12/03 02:53:28;;;;;;;21.83;8.60;;;3.10;99.90;;;;;;5084779;28;20224;-75
2020/12/03 02:55:55;;;;;;;20.45;8.68;;;3.10;99.90;;;;;;5084563;28;20707;-75
2020/12/03 02:58:22;;;;;;;19.88;8.48;;;3.10;99.90;;;;;;5085434;28;20652;-76
2020/12/03 03:00:48;;;;;;;17.90;7.72;;;3.30;99.90;;;;;;5089413;28;20305;-77
2020/12/03 03:03:14;;;;;;;19.88;8.95;;;3.40;99.90;;;;;;5097548;28;20672;-77
2020/12/03 03:05:40;;;;;;;24.55;9.05;;;3.50;99.90;;;;;;5097034;28;20297;-75
2020/12/03 03:08:07;;;;;;;24.95;10.75;;;3.50;99.90;;;;;;5097440;28;20655;-75
2020/12/03 03:10:33;;;;;;;17.90;8.90;;;3.50;99.90;;;;;;5096945;28;20210;-75
2020/12/03 03:13:00;;;;;;;17.65;9.65;;;3.50;99.90;;;;;;5097211;28;20539;-75
2020/12/03 03:15:26;;;;;;;17.52;9.75;;;3.50;99.90;;;;;;5096637;28;20591;-75
2020/12/03 03:17:53;;;;;;;21.02;9.15;;;3.40;99.90;;;;;;5097400;28;20240;-75
2020/12/03 03:20:19;;;;;;;23.13;9.45;;;3.30;99.90;;;;;;5097200;28;20214;-75
2020/12/03 03:22:45;;;;;;;17.02;9.02;;;3.30;99.90;;;;;;5097457;28;20209;-75
2020/12/03 03:25:12;;;;;;;20.30;8.88;;;3.30;99.90;;;;;;5096599;28;20202;-75
2020/12/03 03:27:38;;;;;;;18.15;9.65;;;3.20;99.90;;;;;;5096830;28;20202;-75
2020/12/03 03:30:07;;;;;;;21.52;9.90;;;3.20;99.90;;;;;;5096703;28;20206;-75
2020/12/03 03:32:33;;;;;;;22.48;10.48;;;3.10;99.90;;;;;;5097234;28;20537;-75
2020/12/03 03:35:00;;;;;;;22.13;9.68;;;3.20;99.90;;;;;;5096687;28;20668;-75
2020/12/03 03:37:26;;;;;;;21.45;9.10;;;3.20;99.90;;;;;;5096459;28;20206;-75
2020/12/03 03:39:52;;;;;;;19.48;9.73;;;3.10;99.90;;;;;;5096490;28;20206;-74
2020/12/03 03:42:19;;;;;;;21.00;8.95;;;3.10;99.90;;;;;;5096320;28;20222;-74
2020/12/03 03:44:45;;;;;;;23.17;8.38;;;2.90;99.90;;;;;;5096392;28;20579;-75
2020/12/03 03:47:12;;;;;;;16.48;8.00;;;2.90;99.90;;;;;;5096038;28;20210;-75
2020/12/03 03:49:38;;;;;;;14.10;6.93;;;2.80;99.90;;;;;;5095024;28;20198;-74
2020/12/03 03:52:05;;;;;;;19.17;7.35;;;2.80;99.90;;;;;;5096404;28;20229;-74
2020/12/03 03:54:31;;;;;;;17.52;7.30;;;2.80;99.90;;;;;;5095578;28;20672;-75
2020/12/03 03:56:57;;;;;;;21.25;9.38;;;2.80;99.90;;;;;;5096285;28;20198;-74
2020/12/03 03:59:24;;;;;;;20.45;8.73;;;2.80;99.90;;;;;;5096360;28;20556;-74
2020/12/03 04:01:50;;;;;;;22.42;8.70;;;2.70;99.90;;;;;;5095837;28;20397;-74
2020/12/03 04:04:17;;;;;;;20.85;8.57;;;2.80;99.90;;;;;;5096650;28;20206;-74
2020/12/03 04:06:44;;;;;;;21.20;10.15;;;2.70;99.90;;;;;;5095822;28;20201;-74
2020/12/03 04:09:10;;;;;;;26.10;8.82;;;2.70;99.90;;;;;;5095807;28;20637;-75
2020/12/03 04:11:36;;;;;;;17.90;8.15;;;2.80;99.90;;;;;;5096361;28;20224;-75
2020/12/03 04:14:03;;;;;;;22.20;8.82;;;2.80;99.90;;;;;;5096070;28;20292;-74
2020/12/03 04:16:29;;;;;;;23.88;8.57;;;2.80;99.90;;;;;;5095428;28;20228;-74
2020/12/03 04:18:55;;;;;;;20.25;9.70;;;2.80;99.90;;;;;;5096110;28;20205;-74
2020/12/03 04:21:22;;;;;;;29.98;10.35;;;3.00;99.90;;;;;;5095695;28;20226;-75
2020/12/03 04:23:49;;;;;;;16.75;8.18;;;3.00;99.90;;;;;;5095765;28;20198;-75
2020/12/03 04:26:15;;;;;;;15.50;7.80;;;3.10;99.90;;;;;;5095361;28;20200;-75
2020/12/03 04:28:42;;;;;;;23.17;8.85;;;3.10;99.90;;;;;;5095743;28;20202;-75
2020/12/03 04:31:10;;;;;;;16.65;8.40;;;3.20;99.90;;;;;;5095361;28;20312;-75
2020/12/03 04:33:36;;;;;;;20.67;8.07;;;3.30;99.90;;;;;;5095124;28;20216;-75
2020/12/03 04:36:03;;;;;;;19.42;8.25;;;3.40;99.90;;;;;;5095148;28;20226;-75
2020/12/03 04:38:30;;;;;;;16.60;8.07;;;3.30;99.90;;;;;;5095431;28;20289;-75
2020/12/03 04:40:58;;;;;;;16.30;8.32;;;3.20;99.90;;;;;;5094993;28;20787;-75
2020/12/03 04:43:31;;;;;;;20.13;7.65;;;3.20;99.90;;;;;;5095119;28;20202;-75
2020/12/03 04:46:04;;;;;;;20.90;8.55;;;3.20;99.90;;;;;;5094709;28;20202;-75
2020/12/03 04:48:58;;;;;;;22.98;9.15;;;3.30;99.90;;;;;;5095071;28;20300;-75
2020/12/03 04:52:05;;;;;;;19.25;8.18;;;3.20;99.90;;;;;;5092263;28;20309;-75
2020/12/03 04:54:40;;;;;;;14.85;8.07;;;3.00;99.90;;;;;;5084220;28;20289;-75
2020/12/03 04:57:20;;;;;;;26.15;9.63;;;2.80;99.90;;;;;;5095415;28;20208;-75
2020/12/03 04:59:56;;;;;;;23.67;8.43;;;2.60;99.90;;;;;;5095202;28;20248;-75
2020/12/03 05:02:41;;;;;;;20.70;8.23;;;2.50;99.90;;;;;;5095278;28;20225;-74
2020/12/03 05:05:28;;;;;;;18.95;8.05;;;2.50;99.90;;;;;;5094705;28;20194;-75
2020/12/03 05:08:03;;;;;;;22.25;8.27;;;2.40;99.90;;;;;;5094964;28;20202;-75
2020/12/03 05:10:38;;;;;;;15.90;6.70;;;2.30;99.90;;;;;;5095015;28;20639;-75
2020/12/03 05:13:11;;;;;;;19.40;7.40;;;2.30;99.90;;;;;;5095099;28;20186;-75
2020/12/03 05:15:37;;;;;;;16.08;7.07;;;2.30;99.90;;;;;;5094208;28;20679;-74
2020/12/03 05:18:43;;;;;;;12.93;6.93;;;2.40;99.90;;;;;;5094721;28;20303;-74
2020/12/03 05:21:13;;;;;;;17.10;7.65;;;2.50;99.90;;;;;;5047107;28;20233;-75
2020/12/03 05:23:40;;;;;;;19.38;7.70;;;2.60;99.90;;;;;;5094748;28;20551;-74
2020/12/03 05:26:15;;;;;;;17.17;9.15;;;2.70;99.90;;;;;;5094374;28;20208;-75
2020/12/03 05:28:47;;;;;;;19.75;7.65;;;2.70;99.90;;;;;;5094442;28;20640;-75
2020/12/03 05:31:31;;;;;;;17.92;8.20;;;2.70;99.90;;;;;;5094578;28;20257;-74
2020/12/03 05:34:01;;;;;;;19.55;8.27;;;2.90;99.90;;;;;;5094958;28;20186;-75
2020/12/03 05:36:30;;;;;;;15.35;7.95;;;2.90;99.90;;;;;;5094312;28;20236;-75
2020/12/03 05:38:58;;;;;;;17.60;7.53;;;3.10;99.90;;;;;;5094331;28;20279;-75
2020/12/03 05:41:28;;;;;;;18.02;6.70;;;3.10;99.90;;;;;;5093780;28;20232;-75
2020/12/03 05:43:55;;;;;;;15.77;7.20;;;3.10;99.90;;;;;;5094312;28;20217;-74
2020/12/03 05:46:23;;;;;;;15.32;6.55;;;3.30;99.90;;;;;;5093611;28;20292;-75
2020/12/03 05:49:02;;;;;;;11.50;6.25;;;3.40;99.90;;;;;;5094036;28;20259;-74
2020/12/03 05:51:31;;;;;;;13.32;5.50;;;3.50;99.90;;;;;;5094689;28;20227;-74
2020/12/03 05:54:01;;;;;;;11.68;4.57;;;3.60;99.90;;;;;;5094258;28;20213;-74
2020/12/03 05:56:31;;;;;;;9.75;4.85;;;3.60;99.90;;;;;;5094147;28;20221;-74
2020/12/03 05:59:15;;;;;;;23.88;8.90;;;3.70;99.90;;;;;;5094103;28;20574;-74
2020/12/03 06:02:00;;;;;;;12.93;4.80;;;3.80;99.90;;;;;;5094028;28;20583;-74
2020/12/03 06:04:37;;;;;;;5.93;3.70;;;3.80;99.90;;;;;;5094164;28;20564;-75
2020/12/03 06:07:27;;;;;;;7.95;5.20;;;3.80;99.90;;;;;;5094174;28;20198;-74
2020/12/03 06:10:26;;;;;;;12.32;3.88;;;3.80;99.90;;;;;;5093898;28;20297;-74
2020/12/03 06:13:14;;;;;;;7.15;4.45;;;3.90;99.90;;;;;;5093651;28;20193;-74
2020/12/03 06:15:47;;;;;;;10.93;4.18;;;3.90;99.90;;;;;;5093420;28;20228;-74
2020/12/03 06:18:45;;;;;;;5.43;3.25;;;3.90;99.90;;;;;;5093795;28;20292;-75
2020/12/03 06:21:26;;;;;;;9.60;4.13;;;4.00;99.90;;;;;;5086504;28;20313;-75
2020/12/03 06:24:09;;;;;;;10.40;4.90;;;4.00;99.90;;;;;;5094058;28;20202;-75
2020/12/03 06:27:05;;;;;;;9.32;4.70;;;4.00;99.90;;;;;;5093165;28;20198;-75
2020/12/03 06:29:51;;;;;;;13.88;5.53;;;4.00;99.90;;;;;;5093924;28;20212;-75
2020/12/03 06:32:45;;;;;;;7.72;4.15;;;4.10;99.90;;;;;;5093432;28;20573;-75
2020/12/03 06:35:21;;;;;;;8.10;4.05;;;4.10;99.90;;;;;;5093319;28;20221;-75
2020/12/03 06:37:54;;;;;;;8.60;3.58;;;4.10;99.90;;;;;;5093804;28;20205;-75
2020/12/03 06:40:25;;;;;;;15.63;6.18;;;4.20;99.90;;;;;;5093841;28;20212;-75
2020/12/03 06:42:56;;;;;;;10.43;4.90;;;4.20;99.90;;;;;;5093535;28;20190;-75
2020/12/03 06:45:34;;;;;;;9.05;3.97;;;4.10;99.90;;;;;;5093225;28;20209;-74
2020/12/03 06:48:30;;;;;;;10.15;4.85;;;4.20;99.90;;;;;;5093599;28;20314;-75
2020/12/03 06:51:25;;;;;;;8.02;4.32;;;4.20;99.90;;;;;;5093737;28;20225;-75
2020/12/03 06:54:25;;;;;;;6.68;4.55;;;4.20;99.90;;;;;;5093537;28;20202;-75
2020/12/03 06:57:43;;;;;;;14.20;5.78;;;4.20;99.90;;;;;;5093734;28;20232;-74
2020/12/03 07:00:47;;;;;;;13.50;5.53;;;4.20;99.90;;;;;;5011522;28;20215;-75
2020/12/03 07:04:07;;;;;;;13.23;5.65;;;4.20;99.90;;;;;;5011735;28;20651;-75
2020/12/03 07:07:17;;;;;;;6.40;5.30;;;4.30;99.90;;;;;;5093292;28;20285;-75
2020/12/03 07:10:24;;;;;;;12.05;5.05;;;4.30;99.90;;;;;;5093187;28;20293;-75
2020/12/03 07:13:22;;;;;;;14.77;5.57;;;4.30;99.90;;;;;;5052180;28;20201;-75
2020/12/03 07:16:22;;;;;;;11.23;5.18;;;4.30;99.90;;;;;;5093023;28;20296;-74
2020/12/03 07:19:27;;;;;;;8.55;5.90;;;4.20;99.90;;;;;;5093293;28;20581;-75
2020/12/03 07:22:09;;;;;;;11.85;5.70;;;4.20;99.90;;;;;;5093346;28;20699;-74
2020/12/03 07:24:36;;;;;;;9.05;6.10;;;4.20;99.90;;;;;;5095199;28;20202;-76
2020/12/03 07:27:36;;;;;;;11.65;6.53;;;4.30;99.90;;;;;;5096592;28;20198;-75
2020/12/03 07:30:08;;;;;;;9.23;5.85;;;4.30;99.90;;;;;;5096947;28;20202;-75
2020/12/03 07:32:45;;;;;;;9.23;4.55;;;4.30;99.90;;;;;;5097257;28;20232;-75
2020/12/03 07:35:28;;;;;;;9.77;5.40;;;4.30;99.90;;;;;;5096433;28;20570;-75
2020/12/03 07:38:04;;;;;;;13.52;5.97;;;4.30;99.90;;;;;;5096267;28;20209;-75
2020/12/03 07:40:31;;;;;;;12.27;5.60;;;4.30;99.90;;;;;;5096738;28;20244;-75
2020/12/03 07:43:03;;;;;;;10.25;5.45;;;4.30;99.90;;;;;;5096447;28;20206;-75
2020/12/03 07:45:42;;;;;;;11.02;5.68;;;4.30;99.90;;;;;;5096215;28;20198;-75
2020/12/03 07:48:15;;;;;;;11.98;5.47;;;4.30;99.90;;;;;;5096502;28;20214;-75
2020/12/03 07:50:51;;;;;;;12.95;5.25;;;4.40;99.90;;;;;;5096369;28;20236;-74
2020/12/03 07:53:25;;;;;;;11.88;5.30;;;4.40;99.90;;;;;;5096888;28;20190;-75
2020/12/03 07:55:52;;;;;;;13.07;5.35;;;4.40;99.90;;;;;;5095901;28;20602;-75
2020/12/03 07:58:36;;;;;;;9.82;4.82;;;4.40;99.90;;;;;;5096248;28;20240;-75
2020/12/03 08:01:04;;;;;;;6.10;3.85;;;4.50;99.90;;;;;;5096210;28;20237;-75
2020/12/03 08:03:48;;;;;;;11.55;5.80;;;4.50;99.90;;;;;;5096596;28;20305;-75
2020/12/03 08:06:24;;;;;;;9.82;5.70;;;4.60;99.90;;;;;;5095858;28;20581;-75
2020/12/03 08:08:53;;;;;;;6.15;4.05;;;4.60;99.90;;;;;;5096082;28;20202;-74
2020/12/03 08:11:41;;;;;;;7.18;4.10;;;4.50;99.90;;;;;;5095465;28;20222;-74
2020/12/03 08:14:39;;;;;;;6.68;4.38;;;4.60;99.90;;;;;;5096238;28;20202;-75
2020/12/03 08:17:26;;;;;;;5.57;3.20;;;4.60;99.90;;;;;;5095594;28;20218;-75
2020/12/03 08:20:13;;;;;;;5.30;3.70;;;4.60;99.90;;;;;;5095732;28;20219;-75
2020/12/03 08:22:42;;;;;;;5.35;2.90;;;4.60;99.90;;;;;;5096276;28;20309;-75
2020/12/03 08:25:12;;;;;;;5.55;3.92;;;4.60;99.90;;;;;;5095193;28;20755;-75
2020/12/03 08:27:39;;;;;;;4.85;2.97;;;4.70;99.90;;;;;;5095755;28;20206;-75
2020/12/03 08:30:33;;;;;;;7.78;3.50;;;4.70;99.90;;;;;;5095714;28;20636;-75
2020/12/03 08:33:04;;;;;;;5.10;2.90;;;4.80;99.90;;;;;;5095008;28;20293;-74
2020/12/03 08:35:31;;;;;;;6.05;3.72;;;4.90;99.90;;;;;;5094614;28;20559;-75
2020/12/03 08:38:00;;;;;;;6.18;3.40;;;4.90;99.90;;;;;;5095276;28;20678;-75
2020/12/03 08:40:29;;;;;;;5.72;3.20;;;4.90;99.90;;;;;;5095401;28;20259;-75
2020/12/03 08:42:56;;;;;;;6.32;3.95;;;4.80;99.90;;;;;;5095801;28;20205;-75
2020/12/03 08:45:23;;;;;;;7.13;4.20;;;4.60;99.90;;;;;;5095073;28;20202;-75
2020/12/03 08:47:52;;;;;;;7.03;4.10;;;4.50;99.90;;;;;;5094951;28;20209;-75
2020/12/03 08:50:20;;;;;;;9.18;5.00;;;4.50;99.90;;;;;;5095099;28;20594;-75
2020/12/03 08:52:46;;;;;;;7.13;4.05;;;4.50;99.90;;;;;;5095365;28;20305;-74
2020/12/03 08:55:13;;;;;;;7.25;4.38;;;4.40;99.90;;;;;;5094691;28;20208;-74
2020/12/03 08:57:41;;;;;;;9.80;4.72;;;4.40;99.90;;;;;;5095340;28;20202;-75
2020/12/03 09:00:13;;;;;;;9.63;5.25;;;4.50;99.90;;;;;;5095314;28;20678;-75
2020/12/03 09:02:41;;;;;;;8.93;4.70;;;4.50;99.90;;;;;;5095066;28;20729;-75
2020/12/03 09:05:08;;;;;;;10.45;5.82;;;4.60;99.90;;;;;;5094622;28;20309;-74
2020/12/03 09:07:42;;;;;;;11.15;4.95;;;4.60;99.90;;;;;;5094842;28;20208;-75
2020/12/03 09:10:09;;;;;;;9.10;5.13;;;4.70;99.90;;;;;;5094830;28;20202;-75
2020/12/03 09:12:39;;;;;;;9.52;5.68;;;4.70;99.90;;;;;;5095072;28;20218;-74
2020/12/03 09:15:07;;;;;;;9.23;5.28;;;4.80;99.90;;;;;;5094443;28;20556;-75
2020/12/03 09:17:35;;;;;;;12.00;6.07;;;4.80;99.90;;;;;;5094438;28;20202;-74
2020/12/03 09:20:06;;;;;;;9.60;4.75;;;4.80;99.90;;;;;;5094768;28;20198;-75
2020/12/03 09:22:34;;;;;;;11.82;7.00;;;4.80;99.90;;;;;;5094963;28;20576;-74
2020/12/03 09:25:03;;;;;;;7.82;4.90;;;4.90;99.90;;;;;;5094552;28;20553;-75
2020/12/03 09:27:31;;;;;;;10.80;5.40;;;4.90;99.90;;;;;;5094350;28;20285;-75
2020/12/03 09:29:58;;;;;;;10.20;5.45;;;4.90;99.90;;;;;;5094493;28;20198;-75
2020/12/03 09:32:25;;;;;;;8.27;4.72;;;4.90;99.90;;;;;;5094379;28;20226;-75
2020/12/03 09:34:56;;;;;;;10.70;5.88;;;4.80;99.90;;;;;;5094168;28;20212;-75
2020/12/03 09:37:23;;;;;;;13.75;5.72;;;4.80;99.90;;;;;;5094564;28;20232;-74
2020/12/03 09:39:50;;;;;;;11.35;6.43;;;4.80;99.90;;;;;;5094571;28;20198;-75
2020/12/03 09:42:18;;;;;;;10.82;5.65;;;4.70;99.90;;;;;;5093935;28;20779;-75
2020/12/03 09:44:53;;;;;;;10.82;5.70;;;4.80;99.90;;;;;;5094080;28;20285;-75
2020/12/03 09:47:23;;;;;;;11.38;5.55;;;4.90;99.90;;;;;;5093197;28;20213;-75
2020/12/03 09:49:52;;;;;;;12.18;5.55;;;5.00;99.90;;;;;;5094500;28;20198;-75
2020/12/03 09:52:19;;;;;;;13.77;5.60;;;5.10;99.90;;;;;;5093769;28;20256;-75
2020/12/03 09:54:46;;;;;;;11.40;6.05;;;5.20;99.90;;;;;;5093748;28;20293;-74
2020/12/03 09:57:13;;;;;;;9.18;5.50;;;5.20;99.90;;;;;;5093828;28;20688;-75
2020/12/03 09:59:40;;;;;;;10.77;5.65;;;5.30;99.90;;;;;;5093986;28;20293;-75
2020/12/03 10:02:36;;;;;;;10.00;4.90;;;5.40;99.90;;;;;;5094080;28;20684;-75
2020/12/03 10:05:18;;;;;;;14.10;5.93;;;5.50;99.90;;;;;;5076417;28;20275;-75
2020/12/03 10:08:11;;;;;;;11.50;5.25;;;5.60;99.90;;;;;;5093839;28;20207;-75
2020/12/03 10:10:51;;;;;;;9.43;5.03;;;5.70;99.90;;;;;;5090158;28;20208;-74
2020/12/03 10:13:38;;;;;;;9.85;5.40;;;5.70;99.90;;;;;;5093552;28;20209;-74
2020/12/03 10:16:10;;;;;;;9.27;6.03;;;5.60;99.90;;;;;;5094035;28;20231;-75
2020/12/03 10:18:44;;;;;;;10.75;5.70;;;5.60;99.90;;;;;;5093916;28;20240;-74
2020/12/03 10:21:15;;;;;;;9.93;6.05;;;5.50;99.90;;;;;;5093374;28;20593;-74
2020/12/03 10:23:50;;;;;;;10.35;5.35;;;5.50;99.90;;;;;;5093388;28;20197;-75
2020/12/03 10:26:30;;;;;;;11.55;5.50;;;5.60;99.90;;;;;;5093641;28;20201;-74
2020/12/03 10:29:13;;;;;;;10.40;5.72;;;5.50;99.90;;;;;;5093754;28;20747;-75
2020/12/03 10:31:40;;;;;;;10.88;5.40;;;5.60;99.90;;;;;;5094015;28;20559;-74
2020/12/03 10:34:07;;;;;;;10.18;6.55;;;5.50;99.90;;;;;;5093574;28;20206;-75
2020/12/03 10:36:39;;;;;;;9.10;4.85;;;5.60;99.90;;;;;;5093433;28;20228;-75
2020/12/03 10:39:07;;;;;;;10.60;4.72;;;5.70;99.90;;;;;;5093947;28;20202;-75
2020/12/03 10:41:38;;;;;;;8.60;5.72;;;5.70;99.90;;;;;;5093602;28;20313;-75
2020/12/03 10:44:09;;;;;;;10.60;4.97;;;5.80;99.90;;;;;;5094438;28;20192;-74
2020/12/03 10:46:45;;;;;;;12.05;5.10;;;5.90;99.90;;;;;;5092974;28;20267;-75
2020/12/03 10:49:15;;;;;;;7.90;4.57;;;5.90;99.90;;;;;;5093538;28;20271;-75
2020/12/03 10:51:42;;;;;;;12.27;5.57;;;6.00;99.90;;;;;;5093782;28;20226;-75
2020/12/03 10:54:09;;;;;;;9.73;4.95;;;6.00;99.90;;;;;;5093668;28;20206;-75
2020/12/03 10:56:37;;;;;;;13.48;6.43;;;6.00;99.90;;;;;;5093759;28;20226;-74
2020/12/03 10:59:32;;;;;;;6.90;4.25;;;5.80;99.90;;;;;;5095272;28;20236;-74
2020/12/03 11:02:02;;;;;;;9.05;4.95;;;5.80;99.90;;;;;;5097246;28;20704;-75
2020/12/03 11:04:31;;;;;;;9.65;4.57;;;5.90;99.90;;;;;;5097392;28;20202;-74
2020/12/03 11:07:07;;;;;;;10.63;5.20;;;5.80;99.90;;;;;;5097483;28;20268;-75
2020/12/03 11:09:34;;;;;;;9.55;4.97;;;5.80;99.90;;;;;;5097036;28;20206;-74
2020/12/03 11:12:01;;;;;;;8.43;5.18;;;5.90;99.90;;;;;;5096655;28;20262;-75
2020/12/03 11:14:31;;;;;;;8.13;4.00;;;5.90;99.90;;;;;;5097004;28;20292;-75
2020/12/03 11:17:03;;;;;;;5.82;4.13;;;5.90;99.90;;;;;;5096865;28;20225;-74
2020/12/03 11:19:33;;;;;;;6.90;4.63;;;5.80;99.70;;;;;;5097004;28;20607;-74
2020/12/03 11:22:11;;;;;;;7.90;4.38;;;5.80;99.70;;;;;;5097145;28;20571;-74
2020/12/03 11:24:44;;;;;;;8.77;4.82;;;5.80;99.90;;;;;;5096735;28;20289;-75
2020/12/03 11:27:11;;;;;;;7.00;4.50;;;5.90;99.80;;;;;;5096779;28;20688;-75
2020/12/03 11:29:38;;;;;;;6.90;4.28;;;5.90;99.90;;;;;;5097039;28;20209;-74
2020/12/03 11:32:05;;;;;;;9.25;4.60;;;5.90;99.60;;;;;;5096360;28;20222;-74
2020/12/03 11:34:35;;;;;;;8.68;4.40;;;5.90;99.80;;;;;;5096385;28;20201;-76
2020/12/03 11:37:02;;;;;;;6.03;4.25;;;5.80;99.90;;;;;;5096420;28;20239;-77
2020/12/03 11:39:29;;;;;;;9.35;4.70;;;5.90;99.90;;;;;;5096462;28;20216;-77
2020/12/03 11:42:15;;;;;;;7.78;4.20;;;5.90;99.70;;;;;;5097131;28;20229;-77
2020/12/03 11:50:16;;;;;;;7.45;4.60;;;5.80;99.70;;;;;;5097037;28;20724;-78
2020/12/03 11:52:43;;;;;;;7.85;4.60;;;5.90;99.50;;;;;;5097658;28;20218;-78
2020/12/03 11:55:18;;;;;;;7.63;4.38;;;5.80;99.50;;;;;;5097312;28;20648;-76
2020/12/03 11:57:44;;;;;;;5.80;4.25;;;5.80;99.60;;;;;;5096907;28;20305;-76
2020/12/03 12:00:19;;;;;;;7.68;3.50;;;5.80;99.40;;;;;;5085629;28;20660;-73
2020/12/03 12:02:49;;;;;;;8.60;4.97;;;5.70;99.50;;;;;;5082726;28;20194;-72
2020/12/03 12:05:23;;;;;;;6.95;4.32;;;5.80;99.90;;;;;;5083516;28;20732;-73
2020/12/03 12:08:02;;;;;;;7.93;4.05;;;5.80;99.90;;;;;;5083127;28;20200;-73
2020/12/03 12:10:31;;;;;;;7.13;3.80;;;5.70;99.90;;;;;;5082071;28;20289;-73
2020/12/03 12:12:57;;;;;;;7.80;3.58;;;5.80;99.90;;;;;;5083962;28;20230;-74
2020/12/03 12:15:24;;;;;;;6.40;3.72;;;5.80;99.70;;;;;;5083340;28;20707;-74
2020/12/03 12:17:51;;;;;;;6.25;4.50;;;5.80;99.90;;;;;;5084901;28;20218;-74
2020/12/03 12:20:17;;;;;;;6.63;3.47;;;5.90;99.90;;;;;;5083671;28;20190;-75
2020/12/03 12:22:43;;;;;;;7.45;5.25;;;6.00;99.80;;;;;;5085545;28;20199;-74
2020/12/03 12:25:10;;;;;;;6.95;3.50;;;6.00;99.90;;;;;;5082884;28;20573;-74
2020/12/03 12:27:36;;;;;;;6.03;3.72;;;5.80;99.30;;;;;;5084182;28;20186;-73
2020/12/03 12:30:04;;;;;;;6.10;4.28;;;5.80;99.20;;;;;;5084269;28;20195;-73
2020/12/03 12:32:30;;;;;;;6.68;3.28;;;5.70;99.50;;;;;;5082413;28;20227;-73
2020/12/03 12:34:57;;;;;;;6.38;3.75;;;5.80;98.90;;;;;;5084083;28;20201;-72
2020/12/03 12:37:24;;;;;;;5.57;4.05;;;5.80;99.80;;;;;;5084350;28;20249;-72
2020/12/03 12:39:50;;;;;;;6.43;3.90;;;5.90;99.90;;;;;;5082425;28;20309;-74
2020/12/03 12:42:16;;;;;;;17.23;7.50;;;6.00;99.90;;;;;;5082763;28;20215;-73
2020/12/03 12:44:43;;;;;;;11.48;4.22;;;6.00;99.90;;;;;;5082899;28;20656;-77
2020/12/03 12:47:09;;;;;;;5.32;3.60;;;6.10;99.90;;;;;;5085555;28;20205;-76
2020/12/03 12:49:35;;;;;;;7.38;3.90;;;6.10;99.70;;;;;;5083138;28;20282;-74
2020/12/03 12:52:03;;;;;;;8.50;4.07;;;6.10;99.80;;;;;;5085136;28;20219;-75
2020/12/03 12:54:29;;;;;;;6.47;3.90;;;6.10;99.80;;;;;;5082297;28;20195;-75
2020/12/03 12:56:59;;;;;;;5.35;3.10;;;6.00;99.60;;;;;;5083901;28;20225;-75
2020/12/03 12:59:26;;;;;;;5.38;4.15;;;5.90;99.90;;;;;;5084248;28;20669;-75
2020/12/03 13:01:52;;;;;;;6.65;3.60;;;5.90;99.90;;;;;;5081695;28;20220;-75
2020/12/03 13:04:20;;;;;;;7.82;3.83;;;5.90;99.90;;;;;;5083985;28;20293;-76
2020/12/03 13:06:47;;;;;;;8.63;3.97;;;5.90;99.90;;;;;;5082533;28;20272;-75
2020/12/03 13:09:14;;;;;;;5.20;3.20;;;5.90;99.70;;;;;;5084550;28;20200;-75
2020/12/03 13:11:42;;;;;;;5.72;3.65;;;6.00;99.70;;;;;;5084371;28;20214;-75
2020/12/03 13:14:10;;;;;;;5.97;3.35;;;6.00;99.60;;;;;;5084146;28;20194;-76
2020/12/03 13:16:37;;;;;;;4.75;3.20;;;6.00;99.90;;;;;;5082374;28;20206;-75
2020/12/03 13:19:04;;;;;;;8.10;3.70;;;5.90;99.50;;;;;;5082342;28;20198;-75
2020/12/03 13:21:31;;;;;;;9.20;3.63;;;5.90;99.90;;;;;;5084011;28;20249;-75